createdAt,value
2017-11-22T00:00:37.648Z,8.21
2017-11-22T00:01:37.554Z,8.20
2017-11-22T00:02:37.477Z,8.28
2017-11-22T00:03:37.385Z,8.35
2017-11-22T00:04:37.298Z,8.29
2017-11-22T00:05:37.256Z,8.17
2017-11-22T00:06:37.121Z,8.11
2017-11-22T00:07:37.035Z,8.29
2017-11-22T00:08:36.950Z,8.20
2017-11-22T00:09:36.868Z,8.33
2017-11-22T00:10:36.780Z,8.33
2017-11-22T00:11:36.714Z,8.28
2017-11-22T00:12:36.603Z,8.35
2017-11-22T00:13:36.513Z,8.42
2017-11-22T00:14:36.427Z,8.25
2017-11-22T00:15:36.342Z,8.21
2017-11-22T00:16:36.252Z,8.26
2017-11-22T00:17:36.165Z,8.35
2017-11-22T00:18:36.078Z,8.29
2017-11-22T00:19:35.991Z,8.15
2017-11-22T00:20:35.901Z,8.29
2017-11-22T00:21:35.816Z,8.39
2017-11-22T00:22:35.730Z,8.12
2017-11-22T00:23:35.644Z,8.22
2017-11-22T00:24:35.556Z,8.35
2017-11-22T00:25:35.474Z,8.37
2017-11-22T00:26:35.382Z,8.26
2017-11-22T00:27:35.301Z,8.25
2017-11-22T00:28:35.201Z,8.33
2017-11-22T00:29:35.115Z,8.33
2017-11-22T00:30:35.031Z,8.33
2017-11-22T00:31:34.952Z,8.39
2017-11-22T00:32:34.866Z,8.48
2017-11-22T00:33:34.772Z,8.55
2017-11-22T00:34:34.786Z,8.62
2017-11-22T00:35:34.607Z,8.54
2017-11-22T00:36:34.511Z,8.51
2017-11-22T00:37:34.424Z,8.62
2017-11-22T00:38:34.333Z,8.63
2017-11-22T00:39:34.250Z,8.66
2017-11-22T00:40:34.171Z,8.65
2017-11-22T00:41:34.097Z,8.62
2017-11-22T00:42:34.001Z,8.66
2017-11-22T00:43:33.906Z,8.63
2017-11-22T00:44:33.818Z,8.50
2017-11-22T00:45:33.729Z,8.60
2017-11-22T00:46:33.643Z,8.57
2017-11-22T00:47:33.561Z,8.60
2017-11-22T00:48:33.474Z,8.66
2017-11-22T00:49:33.393Z,8.58
2017-11-22T00:50:33.298Z,8.63
2017-11-22T00:51:33.216Z,8.14
2017-11-22T00:52:33.129Z,8.33
2017-11-22T00:53:33.052Z,8.32
2017-11-22T00:54:32.984Z,8.51
2017-11-22T00:55:32.870Z,8.54
2017-11-22T00:56:32.789Z,8.57
2017-11-22T00:57:32.690Z,8.66
2017-11-22T00:58:32.612Z,8.57
2017-11-22T00:59:32.522Z,8.57
2017-11-22T01:00:32.507Z,8.55
2017-11-22T01:01:32.435Z,8.62
2017-11-22T01:02:32.294Z,8.58
2017-11-22T01:03:32.178Z,8.57
2017-11-22T01:04:32.093Z,8.57
2017-11-22T01:05:32.008Z,8.35
2017-11-22T01:06:31.926Z,8.39
2017-11-22T01:07:31.836Z,8.48
2017-11-22T01:08:31.749Z,8.57
2017-11-22T01:09:31.669Z,8.55
2017-11-22T01:10:31.578Z,8.54
2017-11-22T01:11:31.491Z,8.62
2017-11-22T01:12:31.398Z,8.57
2017-11-22T01:13:31.310Z,8.58
2017-11-22T01:14:31.230Z,8.60
2017-11-22T01:15:31.145Z,8.57
2017-11-22T01:16:31.054Z,8.50
2017-11-22T01:17:30.978Z,8.32
2017-11-22T01:18:30.884Z,8.42
2017-11-22T01:19:30.796Z,8.40
2017-11-22T01:20:30.716Z,8.51
2017-11-22T01:21:30.622Z,8.54
2017-11-22T01:22:30.538Z,8.58
2017-11-22T01:23:30.453Z,8.55
2017-11-22T01:24:30.368Z,8.57
2017-11-22T01:25:30.286Z,8.35
2017-11-22T01:26:30.194Z,8.25
2017-11-22T01:27:30.106Z,8.37
2017-11-22T01:28:30.017Z,8.39
2017-11-22T01:29:29.939Z,8.48
2017-11-22T01:30:29.854Z,8.33
2017-11-22T01:31:29.762Z,8.32
2017-11-22T01:32:29.697Z,8.36
2017-11-22T01:33:29.594Z,8.47
2017-11-22T01:34:29.508Z,8.50
2017-11-22T01:35:29.435Z,8.53
2017-11-22T01:36:29.333Z,8.53
2017-11-22T01:37:29.250Z,8.55
2017-11-22T01:38:29.158Z,8.48
2017-11-22T01:39:29.070Z,8.55
2017-11-22T01:40:28.987Z,8.58
2017-11-22T01:41:28.904Z,8.55
2017-11-22T01:42:28.814Z,8.53
2017-11-22T01:43:28.734Z,8.54
2017-11-22T01:44:28.643Z,8.51
2017-11-22T01:45:28.556Z,8.50
2017-11-22T01:46:28.475Z,8.48
2017-11-22T01:47:28.387Z,8.54
2017-11-22T01:48:28.297Z,8.57
2017-11-22T01:49:28.213Z,8.51
2017-11-22T01:50:28.127Z,8.58
2017-11-22T01:51:28.042Z,8.60
2017-11-22T01:52:27.961Z,8.54
2017-11-22T01:53:27.874Z,8.58
2017-11-22T01:54:27.784Z,8.60
2017-11-22T01:55:27.693Z,8.39
2017-11-22T01:56:27.609Z,8.45
2017-11-22T01:57:27.527Z,8.54
2017-11-22T01:58:27.439Z,8.57
2017-11-22T01:59:27.354Z,8.57
2017-11-22T02:00:27.266Z,8.60
2017-11-22T02:01:27.178Z,8.62
2017-11-22T02:02:27.104Z,8.39
2017-11-22T02:03:27.013Z,8.37
2017-11-22T02:04:26.929Z,8.50
2017-11-22T02:05:26.835Z,8.50
2017-11-22T02:06:26.754Z,8.54
2017-11-22T02:07:26.670Z,8.68
2017-11-22T02:08:26.576Z,8.66
2017-11-22T02:09:26.488Z,8.75
2017-11-22T02:10:26.406Z,8.65
2017-11-22T02:11:26.319Z,8.58
2017-11-22T02:12:26.231Z,8.65
2017-11-22T02:13:26.150Z,8.58
2017-11-22T02:14:26.060Z,8.58
2017-11-22T02:15:25.974Z,8.54
2017-11-22T02:16:25.890Z,8.51
2017-11-22T02:17:25.804Z,8.47
2017-11-22T02:18:25.715Z,8.39
2017-11-22T02:19:25.628Z,8.36
2017-11-22T02:20:25.541Z,8.45
2017-11-22T02:21:25.460Z,8.57
2017-11-22T02:22:25.370Z,8.60
2017-11-22T02:23:25.285Z,8.62
2017-11-22T02:24:25.200Z,8.55
2017-11-22T02:25:25.167Z,8.39
2017-11-22T02:26:25.025Z,8.33
2017-11-22T02:27:24.934Z,8.40
2017-11-22T02:28:24.855Z,8.42
2017-11-22T02:29:24.763Z,8.37
2017-11-22T02:30:24.677Z,8.39
2017-11-22T02:31:24.586Z,8.40
2017-11-22T02:32:24.509Z,8.40
2017-11-22T02:33:24.429Z,8.35
2017-11-22T02:34:24.351Z,8.42
2017-11-22T02:35:24.248Z,8.37
2017-11-22T02:36:24.159Z,8.37
2017-11-22T02:37:24.068Z,8.42
2017-11-22T02:38:23.994Z,8.48
2017-11-22T02:39:23.902Z,8.42
2017-11-22T02:40:23.816Z,8.51
2017-11-22T02:41:23.736Z,8.47
2017-11-22T02:42:23.649Z,8.50
2017-11-22T02:43:23.560Z,8.39
2017-11-22T02:44:23.482Z,8.42
2017-11-22T02:45:23.382Z,8.44
2017-11-22T02:46:23.315Z,8.51
2017-11-22T02:47:23.233Z,8.33
2017-11-22T02:48:23.126Z,8.37
2017-11-22T02:49:23.040Z,8.29
2017-11-22T02:50:22.956Z,8.36
2017-11-22T02:51:22.872Z,8.36
2017-11-22T02:52:22.789Z,8.45
2017-11-22T02:53:22.698Z,8.48
2017-11-22T02:54:22.608Z,8.48
2017-11-22T02:55:22.525Z,8.33
2017-11-22T02:56:22.443Z,8.42
2017-11-22T02:57:22.353Z,8.36
2017-11-22T02:58:22.261Z,8.26
2017-11-22T02:59:22.195Z,8.29
2017-11-22T03:00:22.089Z,8.36
2017-11-22T03:01:22.008Z,8.40
2017-11-22T03:02:21.929Z,8.36
2017-11-22T03:03:21.836Z,8.44
2017-11-22T03:04:21.750Z,8.35
2017-11-22T03:05:21.669Z,8.51
2017-11-22T03:06:21.579Z,8.42
2017-11-22T03:07:21.499Z,8.39
2017-11-22T03:08:21.410Z,8.42
2017-11-22T03:09:21.320Z,8.45
2017-11-22T03:10:21.235Z,8.37
2017-11-22T03:11:21.155Z,8.37
2017-11-22T03:12:21.059Z,8.32
2017-11-22T03:13:20.975Z,8.26
2017-11-22T03:14:20.900Z,8.21
2017-11-22T03:15:20.808Z,8.29
2017-11-22T03:16:20.715Z,8.25
2017-11-22T03:17:20.629Z,8.37
2017-11-22T03:18:20.556Z,8.54
2017-11-22T03:19:20.461Z,8.36
2017-11-22T03:20:20.379Z,8.37
2017-11-22T03:21:20.289Z,8.25
2017-11-22T03:22:20.205Z,8.42
2017-11-22T03:23:20.116Z,8.42
2017-11-22T03:24:20.038Z,8.42
2017-11-22T03:25:19.939Z,8.33
2017-11-22T03:26:19.860Z,8.35
2017-11-22T03:27:19.771Z,8.32
2017-11-22T03:28:19.685Z,8.39
2017-11-22T03:29:19.813Z,8.36
2017-11-22T03:30:19.525Z,8.40
2017-11-22T03:31:19.438Z,8.36
2017-11-22T03:32:19.337Z,8.35
2017-11-22T03:33:19.257Z,8.25
2017-11-22T03:34:19.169Z,8.29
2017-11-22T03:35:19.088Z,8.35
2017-11-22T03:36:18.999Z,8.29
2017-11-22T03:37:18.911Z,8.39
2017-11-22T03:38:18.823Z,8.36
2017-11-22T03:39:18.740Z,8.32
2017-11-22T03:40:18.833Z,8.15
2017-11-22T03:41:18.573Z,8.10
2017-11-22T03:42:18.493Z,8.29
2017-11-22T03:43:18.393Z,8.28
2017-11-22T03:44:18.316Z,8.25
2017-11-22T03:45:18.217Z,8.18
2017-11-22T03:46:18.136Z,8.30
2017-11-22T03:47:18.049Z,8.25
2017-11-22T03:48:17.958Z,8.30
2017-11-22T03:49:17.868Z,8.33
2017-11-22T03:50:17.787Z,8.28
2017-11-22T03:51:17.701Z,8.29
2017-11-22T03:52:17.622Z,8.12
2017-11-22T03:53:17.535Z,8.29
2017-11-22T03:54:17.443Z,8.28
2017-11-22T03:55:17.368Z,8.29
2017-11-22T03:56:17.268Z,8.32
2017-11-22T03:57:17.178Z,8.33
2017-11-22T03:58:17.113Z,8.35
2017-11-22T03:59:17.012Z,8.28
2017-11-22T04:00:16.920Z,8.32
2017-11-22T04:01:16.835Z,8.29
2017-11-22T04:02:16.749Z,8.25
2017-11-22T04:03:16.703Z,8.26
2017-11-22T04:04:16.584Z,8.17
2017-11-22T04:05:16.490Z,7.94
2017-11-22T04:06:16.401Z,8.12
2017-11-22T04:07:16.312Z,8.14
2017-11-22T04:08:16.227Z,8.12
2017-11-22T04:09:16.142Z,8.12
2017-11-22T04:10:16.058Z,8.18
2017-11-22T04:11:15.970Z,8.12
2017-11-22T04:12:15.885Z,8.15
2017-11-22T04:13:15.795Z,8.29
2017-11-22T04:14:15.705Z,8.25
2017-11-22T04:15:15.649Z,8.37
2017-11-22T04:16:15.551Z,8.20
2017-11-22T04:17:15.463Z,8.17
2017-11-22T04:18:15.360Z,8.21
2017-11-22T04:19:15.279Z,8.32
2017-11-22T04:20:15.192Z,8.29
2017-11-22T04:21:15.103Z,8.25
2017-11-22T04:22:15.015Z,8.17
2017-11-22T04:23:14.926Z,8.25
2017-11-22T04:24:14.848Z,8.28
2017-11-22T04:25:14.755Z,8.18
2017-11-22T04:26:14.687Z,7.99
2017-11-22T04:27:14.596Z,7.99
2017-11-22T04:28:14.499Z,8.04
2017-11-22T04:29:14.410Z,8.17
2017-11-22T04:30:14.325Z,8.18
2017-11-22T04:31:14.230Z,8.07
2017-11-22T04:32:14.151Z,8.03
2017-11-22T04:33:14.058Z,8.04
2017-11-22T04:34:13.979Z,7.96
2017-11-22T04:35:13.889Z,8.02
2017-11-22T04:36:13.831Z,8.14
2017-11-22T04:37:13.712Z,8.10
2017-11-22T04:38:13.625Z,8.25
2017-11-22T04:39:13.573Z,8.28
2017-11-22T04:40:13.450Z,8.12
2017-11-22T04:41:13.361Z,8.11
2017-11-22T04:42:13.270Z,8.12
2017-11-22T04:43:13.182Z,8.12
2017-11-22T04:44:13.095Z,8.20
2017-11-22T04:45:13.020Z,8.11
2017-11-22T04:46:12.936Z,7.89
2017-11-22T04:47:12.841Z,7.84
2017-11-22T04:48:12.752Z,7.90
2017-11-22T04:49:12.664Z,8.12
2017-11-22T04:50:12.576Z,7.90
2017-11-22T04:51:12.485Z,8.17
2017-11-22T04:52:12.401Z,7.92
2017-11-22T04:53:12.313Z,7.99
2017-11-22T04:54:12.224Z,7.84
2017-11-22T04:55:12.134Z,7.84
2017-11-22T04:56:12.047Z,7.78
2017-11-22T04:57:11.966Z,7.94
2017-11-22T04:58:11.875Z,7.99
2017-11-22T04:59:11.790Z,7.92
2017-11-22T05:00:11.721Z,7.92
2017-11-22T05:01:11.618Z,7.90
2017-11-22T05:02:11.517Z,7.60
2017-11-22T05:03:11.431Z,7.82
2017-11-22T05:04:11.340Z,7.97
2017-11-22T05:05:11.252Z,7.99
2017-11-22T05:06:11.193Z,8.00
2017-11-22T05:07:11.078Z,7.90
2017-11-22T05:08:10.989Z,7.99
2017-11-22T05:09:10.901Z,8.14
2017-11-22T05:10:10.806Z,8.12
2017-11-22T05:11:10.718Z,7.99
2017-11-22T05:12:10.634Z,8.18
2017-11-22T05:13:10.548Z,8.02
2017-11-22T05:14:10.465Z,8.20
2017-11-22T05:15:10.373Z,8.18
2017-11-22T05:16:10.286Z,8.02
2017-11-22T05:17:10.195Z,8.10
2017-11-22T05:18:10.104Z,7.99
2017-11-22T05:19:10.018Z,8.20
2017-11-22T05:20:09.954Z,8.11
2017-11-22T05:21:09.851Z,8.22
2017-11-22T05:22:09.760Z,8.32
2017-11-22T05:23:09.668Z,8.29
2017-11-22T05:24:09.587Z,8.29
2017-11-22T05:25:09.501Z,8.26
2017-11-22T05:26:09.470Z,8.36
2017-11-22T05:27:09.330Z,8.37
2017-11-22T05:28:09.240Z,8.32
2017-11-22T05:29:09.148Z,8.33
2017-11-22T05:30:09.067Z,8.35
2017-11-22T05:31:08.980Z,8.28
2017-11-22T05:32:08.902Z,8.35
2017-11-22T05:33:08.815Z,8.44
2017-11-22T05:34:08.715Z,8.35
2017-11-22T05:35:08.627Z,8.36
2017-11-22T05:36:08.552Z,8.40
2017-11-22T05:37:08.462Z,8.42
2017-11-22T05:38:08.376Z,8.42
2017-11-22T05:39:08.297Z,8.47
2017-11-22T05:40:08.200Z,8.44
2017-11-22T05:41:08.118Z,8.51
2017-11-22T05:42:08.031Z,8.42
2017-11-22T05:43:07.955Z,8.39
2017-11-22T05:44:07.855Z,8.40
2017-11-22T05:45:07.769Z,8.36
2017-11-22T05:46:07.689Z,8.51
2017-11-22T05:47:07.596Z,8.40
2017-11-22T05:48:07.520Z,8.39
2017-11-22T05:49:07.427Z,8.36
2017-11-22T05:50:07.334Z,8.35
2017-11-22T05:51:07.255Z,8.36
2017-11-22T05:52:07.168Z,8.29
2017-11-22T05:53:07.079Z,8.21
2017-11-22T05:54:06.995Z,8.28
2017-11-22T05:55:06.914Z,8.18
2017-11-22T05:56:06.822Z,8.22
2017-11-22T05:57:06.738Z,8.18
2017-11-22T05:58:06.652Z,8.21
2017-11-22T05:59:06.564Z,8.21
2017-11-22T06:00:06.485Z,8.22
2017-11-22T06:01:06.393Z,8.25
2017-11-22T06:02:06.307Z,8.17
2017-11-22T06:03:06.241Z,8.32
2017-11-22T06:04:06.137Z,8.28
2017-11-22T06:05:06.046Z,8.36
2017-11-22T06:06:05.993Z,8.37
2017-11-22T06:07:05.886Z,8.35
2017-11-22T06:08:05.793Z,8.35
2017-11-22T06:09:05.695Z,8.36
2017-11-22T06:10:05.616Z,8.29
2017-11-22T06:11:05.528Z,8.30
2017-11-22T06:12:05.444Z,8.15
2017-11-22T06:13:05.353Z,8.28
2017-11-22T06:14:05.267Z,8.30
2017-11-22T06:15:05.181Z,8.22
2017-11-22T06:16:05.101Z,8.20
2017-11-22T06:17:05.026Z,8.28
2017-11-22T06:18:04.918Z,8.25
2017-11-22T06:19:04.838Z,8.20
2017-11-22T06:20:04.749Z,8.14
2017-11-22T06:21:04.698Z,8.21
2017-11-22T06:22:04.572Z,8.29
2017-11-22T06:23:04.484Z,8.25
2017-11-22T06:24:04.413Z,8.21
2017-11-22T06:25:04.309Z,8.25
2017-11-22T06:26:04.225Z,8.20
2017-11-22T06:27:04.136Z,8.18
2017-11-22T06:28:04.050Z,8.22
2017-11-22T06:29:04.047Z,8.30
2017-11-22T06:30:03.880Z,8.29
2017-11-22T06:31:03.798Z,8.29
2017-11-22T06:32:03.704Z,8.20
2017-11-22T06:33:03.613Z,8.02
2017-11-22T06:34:03.528Z,7.90
2017-11-22T06:35:03.455Z,7.93
2017-11-22T06:36:03.378Z,7.79
2017-11-22T06:37:03.954Z,7.84
2017-11-22T06:38:03.179Z,7.84
2017-11-22T06:39:03.095Z,7.85
2017-11-22T06:40:03.017Z,7.79
2017-11-22T06:41:02.923Z,7.87
2017-11-22T06:42:02.842Z,7.84
2017-11-22T06:43:02.751Z,7.90
2017-11-22T06:44:02.669Z,7.81
2017-11-22T06:45:02.574Z,7.79
2017-11-22T06:46:02.505Z,7.82
2017-11-22T06:47:02.397Z,7.79
2017-11-22T06:48:02.314Z,7.67
2017-11-22T06:49:02.227Z,7.60
2017-11-22T06:50:02.162Z,7.63
2017-11-22T06:51:02.054Z,7.59
2017-11-22T06:52:01.968Z,7.63
2017-11-22T06:53:01.886Z,7.66
2017-11-22T06:54:01.814Z,7.66
2017-11-22T06:55:01.710Z,7.60
2017-11-22T06:56:01.619Z,7.63
2017-11-22T06:57:01.537Z,7.67
2017-11-22T06:58:01.451Z,7.53
2017-11-22T06:59:01.362Z,7.58
2017-11-22T07:00:01.278Z,7.59
2017-11-22T07:01:01.188Z,7.52
2017-11-22T07:02:01.100Z,7.69
2017-11-22T07:03:01.014Z,7.66
2017-11-22T07:04:00.928Z,7.66
2017-11-22T07:05:00.849Z,7.62
2017-11-22T07:06:00.757Z,7.62
2017-11-22T07:07:00.668Z,7.63
2017-11-22T07:08:00.578Z,7.69
2017-11-22T07:09:00.512Z,7.67
2017-11-22T07:10:00.415Z,7.60
2017-11-22T07:11:00.352Z,7.63
2017-11-22T07:12:00.246Z,7.59
2017-11-22T07:13:00.154Z,7.53
2017-11-22T07:14:00.074Z,7.63
2017-11-22T07:14:59.979Z,7.60
2017-11-22T07:15:59.911Z,7.79
2017-11-22T07:16:59.806Z,7.77
2017-11-22T07:17:59.718Z,7.69
2017-11-22T07:18:59.625Z,7.71
2017-11-22T07:19:59.548Z,7.66
2017-11-22T07:20:59.456Z,7.53
2017-11-22T07:21:59.372Z,7.55
2017-11-22T07:22:59.308Z,7.63
2017-11-22T07:23:59.219Z,7.69
2017-11-22T07:24:59.110Z,7.67
2017-11-22T07:25:59.026Z,7.77
2017-11-22T07:26:58.950Z,7.75
2017-11-22T07:27:58.903Z,7.69
2017-11-22T07:28:58.812Z,7.69
2017-11-22T07:29:58.688Z,7.59
2017-11-22T07:30:58.599Z,7.72
2017-11-22T07:31:58.509Z,7.63
2017-11-22T07:32:58.419Z,7.77
2017-11-22T07:33:58.339Z,7.89
2017-11-22T07:34:58.248Z,7.77
2017-11-22T07:35:58.159Z,7.89
2017-11-22T07:36:58.106Z,7.85
2017-11-22T07:37:57.995Z,8.04
2017-11-22T07:38:57.910Z,8.11
2017-11-22T07:39:57.824Z,8.35
2017-11-22T07:40:57.732Z,8.39
2017-11-22T07:41:57.646Z,8.51
2017-11-22T07:42:57.568Z,8.50
2017-11-22T07:43:57.479Z,8.62
2017-11-22T07:44:57.389Z,8.81
2017-11-22T07:45:57.305Z,8.88
2017-11-22T07:46:57.254Z,8.90
2017-11-22T07:47:57.138Z,9.09
2017-11-22T07:48:57.057Z,9.45
2017-11-22T07:49:56.981Z,9.64
2017-11-22T07:50:56.885Z,9.86
2017-11-22T07:51:56.809Z,10.14
2017-11-22T07:52:56.723Z,10.34
2017-11-22T07:53:56.642Z,10.42
2017-11-22T07:54:56.578Z,10.33
2017-11-22T07:55:56.498Z,10.18
2017-11-22T07:56:56.388Z,10.39
2017-11-22T07:57:56.316Z,10.70
2017-11-22T07:58:56.219Z,11.03
2017-11-22T07:59:56.141Z,11.29
2017-11-22T08:00:56.058Z,11.27
2017-11-22T08:01:55.978Z,11.09
2017-11-22T08:02:55.898Z,11.52
2017-11-22T08:03:55.816Z,11.68
2017-11-22T08:04:55.739Z,11.80
2017-11-22T08:05:55.649Z,12.09
2017-11-22T08:06:55.570Z,12.21
2017-11-22T08:07:55.503Z,12.44
2017-11-22T08:08:55.409Z,12.57
2017-11-22T08:09:55.333Z,12.11
2017-11-22T08:10:55.254Z,12.31
2017-11-22T08:11:55.175Z,12.67
2017-11-22T08:12:55.088Z,12.87
2017-11-22T08:13:55.006Z,13.11
2017-11-22T08:14:54.923Z,13.18
2017-11-22T08:15:54.850Z,13.36
2017-11-22T08:16:54.763Z,13.47
2017-11-22T08:17:54.679Z,13.62
2017-11-22T08:18:54.601Z,13.71
2017-11-22T08:19:54.527Z,13.94
2017-11-22T08:20:54.441Z,13.99
2017-11-22T08:21:54.361Z,14.12
2017-11-22T08:22:54.288Z,13.92
2017-11-22T08:23:54.202Z,13.99
2017-11-22T08:24:54.122Z,14.04
2017-11-22T08:25:54.041Z,14.07
2017-11-22T08:26:53.960Z,14.28
2017-11-22T08:27:53.886Z,14.60
2017-11-22T08:28:53.803Z,14.62
2017-11-22T08:29:53.724Z,14.44
2017-11-22T08:30:53.645Z,14.06
2017-11-22T08:31:53.595Z,13.44
2017-11-22T08:32:53.486Z,13.17
2017-11-22T08:33:53.409Z,13.33
2017-11-22T08:34:53.337Z,12.99
2017-11-22T08:35:53.242Z,13.18
2017-11-22T08:36:53.164Z,13.54
2017-11-22T08:37:53.085Z,14.02
2017-11-22T08:38:53.012Z,14.49
2017-11-22T08:39:52.922Z,14.84
2017-11-22T08:40:52.850Z,14.90
2017-11-22T08:41:52.761Z,15.02
2017-11-22T08:42:52.687Z,15.09
2017-11-22T08:43:52.607Z,15.33
2017-11-22T08:44:52.531Z,15.59
2017-11-22T08:45:52.453Z,15.96
2017-11-22T08:46:52.370Z,16.09
2017-11-22T08:47:52.289Z,16.34
2017-11-22T08:48:52.210Z,16.44
2017-11-22T08:49:52.134Z,16.25
2017-11-22T08:50:52.056Z,16.23
2017-11-22T08:51:51.974Z,16.52
2017-11-22T08:52:51.905Z,16.77
2017-11-22T08:53:51.831Z,16.49
2017-11-22T08:54:51.750Z,16.50
2017-11-22T08:55:51.675Z,16.68
2017-11-22T08:56:51.599Z,16.83
2017-11-22T08:57:51.513Z,17.11
2017-11-22T08:58:51.449Z,17.25
2017-11-22T08:59:51.369Z,17.41
2017-11-22T09:00:51.296Z,17.64
2017-11-22T09:01:51.220Z,17.25
2017-11-22T09:02:51.135Z,17.43
2017-11-22T09:03:51.052Z,17.38
2017-11-22T09:04:50.979Z,16.68
2017-11-22T09:05:50.905Z,17.14
2017-11-22T09:06:50.830Z,17.55
2017-11-22T09:07:50.751Z,17.82
2017-11-22T09:08:50.675Z,17.91
2017-11-22T09:09:50.613Z,17.66
2017-11-22T09:10:50.546Z,17.43
2017-11-22T09:11:50.448Z,17.62
2017-11-22T09:12:50.375Z,17.70
2017-11-22T09:13:50.296Z,17.87
2017-11-22T09:14:50.222Z,17.92
2017-11-22T09:15:50.148Z,18.00
2017-11-22T09:16:50.067Z,17.94
2017-11-22T09:17:50.022Z,18.13
2017-11-22T09:18:49.926Z,17.88
2017-11-22T09:19:49.846Z,17.94
2017-11-22T09:20:49.782Z,18.10
2017-11-22T09:21:49.694Z,18.06
2017-11-22T09:22:49.632Z,18.28
2017-11-22T09:23:49.558Z,17.97
2017-11-22T09:24:49.472Z,18.25
2017-11-22T09:25:49.398Z,18.31
2017-11-22T09:26:49.336Z,18.13
2017-11-22T09:27:49.275Z,18.27
2017-11-22T09:28:49.173Z,18.25
2017-11-22T09:29:49.094Z,18.44
2017-11-22T09:30:49.025Z,18.36
2017-11-22T09:31:48.954Z,18.49
2017-11-22T09:32:48.878Z,18.50
2017-11-22T09:33:48.811Z,17.92
2017-11-22T09:34:48.725Z,18.04
2017-11-22T09:35:48.656Z,18.00
2017-11-22T09:36:48.573Z,18.09
2017-11-22T09:37:48.497Z,17.48
2017-11-22T09:38:48.451Z,17.36
2017-11-22T09:39:48.353Z,17.50
2017-11-22T09:40:48.279Z,17.47
2017-11-22T09:41:48.197Z,17.53
2017-11-22T09:42:48.125Z,17.20
2017-11-22T09:43:48.042Z,17.13
2017-11-22T09:44:47.969Z,17.23
2017-11-22T09:45:47.920Z,17.36
2017-11-22T09:46:47.812Z,17.36
2017-11-22T09:47:47.737Z,17.20
2017-11-22T09:48:47.679Z,16.41
2017-11-22T09:49:47.590Z,16.23
2017-11-22T09:50:47.527Z,16.31
2017-11-22T09:51:47.432Z,16.49
2017-11-22T09:52:47.348Z,16.38
2017-11-22T09:53:47.312Z,16.74
2017-11-22T09:54:47.214Z,16.98
2017-11-22T09:55:47.128Z,17.06
2017-11-22T09:56:47.054Z,17.18
2017-11-22T09:57:46.980Z,17.15
2017-11-22T09:58:46.907Z,17.08
2017-11-22T09:59:46.869Z,17.35
2017-11-22T10:00:46.746Z,17.40
2017-11-22T10:01:46.661Z,17.51
2017-11-22T10:02:46.591Z,17.08
2017-11-22T10:03:46.511Z,17.13
2017-11-22T10:04:46.440Z,17.38
2017-11-22T10:05:46.354Z,17.36
2017-11-22T10:06:46.275Z,16.89
2017-11-22T10:07:46.226Z,17.15
2017-11-22T10:08:46.126Z,16.85
2017-11-22T10:09:46.049Z,16.86
2017-11-22T10:10:45.976Z,17.13
2017-11-22T10:11:45.891Z,17.18
2017-11-22T10:12:45.819Z,17.28
2017-11-22T10:13:45.752Z,16.30
2017-11-22T10:14:45.659Z,16.67
2017-11-22T10:15:45.595Z,16.33
2017-11-22T10:16:45.511Z,16.49
2017-11-22T10:17:45.465Z,16.68
2017-11-22T10:18:45.370Z,16.99
2017-11-22T10:19:45.276Z,17.15
2017-11-22T10:20:45.210Z,17.17
2017-11-22T10:21:45.136Z,17.18
2017-11-22T10:22:45.047Z,17.41
2017-11-22T10:23:44.974Z,17.13
2017-11-22T10:24:44.895Z,17.17
2017-11-22T10:25:44.819Z,17.35
2017-11-22T10:26:44.752Z,17.41
2017-11-22T10:27:44.664Z,17.41
2017-11-22T10:28:44.592Z,17.08
2017-11-22T10:29:44.531Z,16.11
2017-11-22T10:30:44.435Z,16.30
2017-11-22T10:31:44.365Z,16.53
2017-11-22T10:32:44.285Z,16.71
2017-11-22T10:33:44.219Z,16.74
2017-11-22T10:34:44.128Z,16.95
2017-11-22T10:35:44.060Z,16.86
2017-11-22T10:36:43.980Z,16.40
2017-11-22T10:37:43.961Z,16.88
2017-11-22T10:38:43.819Z,17.22
2017-11-22T10:39:43.742Z,17.25
2017-11-22T10:40:43.679Z,17.43
2017-11-22T10:41:43.584Z,17.55
2017-11-22T10:42:43.515Z,17.81
2017-11-22T10:43:43.436Z,17.88
2017-11-22T10:44:43.365Z,18.00
2017-11-22T10:45:43.304Z,18.19
2017-11-22T10:46:43.213Z,17.87
2017-11-22T10:47:43.156Z,17.79
2017-11-22T10:48:43.064Z,17.74
2017-11-22T10:49:42.994Z,17.64
2017-11-22T10:50:42.930Z,17.87
2017-11-22T10:51:42.835Z,17.64
2017-11-22T10:52:42.777Z,17.76
2017-11-22T10:53:42.689Z,17.70
2017-11-22T10:54:42.617Z,17.54
2017-11-22T10:55:42.560Z,17.59
2017-11-22T10:56:42.466Z,17.78
2017-11-22T10:57:42.390Z,17.73
2017-11-22T10:58:42.317Z,17.38
2017-11-22T10:59:42.238Z,17.69
2017-11-22T11:00:42.177Z,17.18
2017-11-22T11:01:42.093Z,17.23
2017-11-22T11:02:42.035Z,17.15
2017-11-22T11:03:41.965Z,17.40
2017-11-22T11:04:41.894Z,17.69
2017-11-22T11:05:41.795Z,17.54
2017-11-22T11:06:41.714Z,17.07
2017-11-22T11:07:41.639Z,17.15
2017-11-22T11:08:41.560Z,17.44
2017-11-22T11:09:41.480Z,17.79
2017-11-22T11:10:41.410Z,17.23
2017-11-22T11:11:41.333Z,17.59
2017-11-22T11:12:41.266Z,17.79
2017-11-22T11:13:41.186Z,17.94
2017-11-22T11:14:41.101Z,17.51
2017-11-22T11:15:41.037Z,17.73
2017-11-22T11:16:40.958Z,17.95
2017-11-22T11:17:40.885Z,17.70
2017-11-22T11:18:40.807Z,17.91
2017-11-22T11:19:40.727Z,17.84
2017-11-22T11:20:40.664Z,18.12
2017-11-22T11:21:40.576Z,18.10
2017-11-22T11:22:40.500Z,17.89
2017-11-22T11:23:40.429Z,17.99
2017-11-22T11:24:40.363Z,18.10
2017-11-22T11:25:40.299Z,17.92
2017-11-22T11:26:40.203Z,17.92
2017-11-22T11:27:40.120Z,17.97
2017-11-22T11:28:40.043Z,17.91
2017-11-22T11:29:39.966Z,17.74
2017-11-22T11:30:39.892Z,17.76
2017-11-22T11:31:39.838Z,17.70
2017-11-22T11:32:39.741Z,17.63
2017-11-22T11:33:39.666Z,17.74
2017-11-22T11:34:39.594Z,17.91
2017-11-22T11:35:39.514Z,17.74
2017-11-22T11:36:39.432Z,17.59
2017-11-22T11:37:39.373Z,17.91
2017-11-22T11:38:39.284Z,17.95
2017-11-22T11:39:39.200Z,17.66
2017-11-22T11:40:39.126Z,17.85
2017-11-22T11:41:39.043Z,18.06
2017-11-22T11:42:38.986Z,18.07
2017-11-22T11:43:38.902Z,18.19
2017-11-22T11:44:38.803Z,17.95
2017-11-22T11:45:38.730Z,18.00
2017-11-22T11:46:38.654Z,17.91
2017-11-22T11:47:38.571Z,18.06
2017-11-22T11:48:38.500Z,18.13
2017-11-22T11:49:38.417Z,18.28
2017-11-22T11:50:38.341Z,18.27
2017-11-22T11:51:38.256Z,18.46
2017-11-22T11:52:38.197Z,18.79
2017-11-22T11:53:38.102Z,18.82
2017-11-22T11:54:38.058Z,18.70
2017-11-22T11:55:37.946Z,18.94
2017-11-22T11:56:37.860Z,18.99
2017-11-22T11:57:37.790Z,19.02
2017-11-22T11:58:37.704Z,19.14
2017-11-22T11:59:37.631Z,18.87
2017-11-22T12:00:37.551Z,18.99
2017-11-22T12:01:37.519Z,18.91
2017-11-22T12:02:37.436Z,18.84
2017-11-22T12:03:37.351Z,18.97
2017-11-22T12:04:37.243Z,19.01
2017-11-22T12:05:37.224Z,19.02
2017-11-22T12:06:37.105Z,19.02
2017-11-22T12:07:37.020Z,18.94
2017-11-22T12:08:36.959Z,19.01
2017-11-22T12:09:36.860Z,18.77
2017-11-22T12:10:36.775Z,18.86
2017-11-22T12:11:36.678Z,19.02
2017-11-22T12:12:36.624Z,19.17
2017-11-22T12:13:36.529Z,19.15
2017-11-22T12:14:36.441Z,19.24
2017-11-22T12:15:36.364Z,18.94
2017-11-22T12:16:36.285Z,18.99
2017-11-22T12:17:36.223Z,19.14
2017-11-22T12:18:36.131Z,18.82
2017-11-22T12:19:36.057Z,18.92
2017-11-22T12:20:35.968Z,18.97
2017-11-22T12:21:35.892Z,19.08
2017-11-22T12:22:35.811Z,19.05
2017-11-22T12:23:35.778Z,18.80
2017-11-22T12:24:35.657Z,18.77
2017-11-22T12:25:35.572Z,18.80
2017-11-22T12:26:35.512Z,18.87
2017-11-22T12:27:35.416Z,18.86
2017-11-22T12:28:35.338Z,18.76
2017-11-22T12:29:35.276Z,18.87
2017-11-22T12:30:35.186Z,18.87
2017-11-22T12:31:35.114Z,18.65
2017-11-22T12:32:35.025Z,18.57
2017-11-22T12:33:34.936Z,18.70
2017-11-22T12:34:34.867Z,18.72
2017-11-22T12:35:34.787Z,18.62
2017-11-22T12:36:34.703Z,18.79
2017-11-22T12:37:34.628Z,18.84
2017-11-22T12:38:34.549Z,18.61
2017-11-22T12:39:34.483Z,18.70
2017-11-22T12:40:34.390Z,18.61
2017-11-22T12:41:34.307Z,18.28
2017-11-22T12:42:34.233Z,18.15
2017-11-22T12:43:34.155Z,18.28
2017-11-22T12:44:34.071Z,18.13
2017-11-22T12:45:33.994Z,17.89
2017-11-22T12:46:33.908Z,17.94
2017-11-22T12:47:33.839Z,18.12
2017-11-22T12:48:33.757Z,18.21
2017-11-22T12:49:33.668Z,18.25
2017-11-22T12:50:33.597Z,18.10
2017-11-22T12:51:33.522Z,18.09
2017-11-22T12:52:33.432Z,17.88
2017-11-22T12:53:33.354Z,17.78
2017-11-22T12:54:33.282Z,17.71
2017-11-22T12:55:33.193Z,17.55
2017-11-22T12:56:33.113Z,17.64
2017-11-22T12:57:33.040Z,17.76
2017-11-22T12:58:32.970Z,17.73
2017-11-22T12:59:32.875Z,17.81
2017-11-22T13:00:32.797Z,17.53
2017-11-22T13:01:32.718Z,17.54
2017-11-22T13:02:32.636Z,17.38
2017-11-22T13:03:32.556Z,17.51
2017-11-22T13:04:32.476Z,17.64
2017-11-22T13:05:32.396Z,17.66
2017-11-22T13:06:32.317Z,17.54